createdAt,value
2023-08-16T00:00:23.644Z,96083.41
2023-08-16T00:01:25.351Z,96094.16
2023-08-16T00:02:26.971Z,96093.78
2023-08-16T00:03:28.798Z,96092.97
2023-08-16T00:04:30.495Z,96090.56
2023-08-16T00:05:33.316Z,96098.53
2023-08-16T00:06:34.946Z,96088.97
2023-08-16T00:07:36.509Z,96086.56
2023-08-16T00:08:38.085Z,96090.53
2023-08-16T00:09:40.581Z,96086.16
2023-08-16T00:10:42.198Z,96084.19
2023-08-16T00:11:44.000Z,96086.16
2023-08-16T00:12:45.687Z,96083.78
2023-08-16T00:13:47.276Z,96082.56
2023-08-16T00:14:48.835Z,96087.34
2023-08-16T00:15:50.632Z,96084.91
2023-08-16T00:16:52.446Z,96084.91
2023-08-16T00:17:54.697Z,96084.13
2023-08-16T00:18:56.214Z,96090.50
2023-08-16T00:19:57.754Z,96078.47
2023-08-16T00:21:00.391Z,96085.19
2023-08-16T00:22:02.317Z,96080.03
2023-08-16T00:23:04.192Z,96082.75
2023-08-16T00:24:06.502Z,96084.38
2023-08-16T00:25:08.330Z,96089.56
2023-08-16T00:26:10.102Z,96085.19
2023-08-16T00:27:11.743Z,96084.00
2023-08-16T00:28:13.351Z,96087.53
2023-08-16T00:29:14.928Z,96088.28
2023-08-16T00:30:16.577Z,96091.84
2023-08-16T00:31:19.255Z,96087.84
2023-08-16T00:32:20.821Z,96089.47
2023-08-16T00:33:22.857Z,96085.91
2023-08-16T00:34:24.601Z,96089.84
2023-08-16T00:35:26.219Z,96090.66
2023-08-16T00:36:28.259Z,96081.13
2023-08-16T00:37:29.925Z,96085.53
2023-08-16T00:38:31.495Z,96083.59
2023-08-16T00:39:33.815Z,96080.06
2023-08-16T00:40:35.377Z,96073.25
2023-08-16T00:41:37.003Z,96075.97
2023-08-16T00:42:38.583Z,96078.00
2023-08-16T00:43:40.699Z,96076.00
2023-08-16T00:44:44.785Z,96083.56
2023-08-16T00:45:47.161Z,96074.84
2023-08-16T00:46:48.659Z,96074.91
2023-08-16T00:47:50.448Z,96078.84
2023-08-16T00:48:52.258Z,96074.47
2023-08-16T00:49:54.095Z,96077.97
2023-08-16T00:50:55.704Z,96073.22
2023-08-16T00:51:57.561Z,96078.03
2023-08-16T00:52:59.385Z,96076.44
2023-08-16T00:54:01.028Z,96074.81
2023-08-16T00:55:03.631Z,96074.41
2023-08-16T00:56:06.226Z,96077.56
2023-08-16T00:57:10.088Z,96072.03
2023-08-16T00:58:11.704Z,96072.81
2023-08-16T00:59:15.400Z,96067.25
2023-08-16T01:00:17.172Z,96063.63
2023-08-16T01:01:18.852Z,96061.59
2023-08-16T01:02:21.042Z,96060.41
2023-08-16T01:03:22.686Z,96054.00
2023-08-16T01:04:24.444Z,96051.59
2023-08-16T01:05:26.406Z,96059.66
2023-08-16T01:06:28.022Z,96067.59
2023-08-16T01:07:30.142Z,96060.03
2023-08-16T01:08:33.211Z,96056.81
2023-08-16T01:09:35.331Z,96059.69
2023-08-16T01:10:47.208Z,96061.31
2023-08-16T01:12:00.615Z,96067.66
2023-08-16T01:13:11.341Z,96064.53
2023-08-16T01:14:17.946Z,96061.28
2023-08-16T01:15:22.609Z,96057.69
2023-08-16T01:16:25.626Z,96058.13
2023-08-16T01:17:28.258Z,96056.94
2023-08-16T01:18:30.938Z,96056.91
2023-08-16T01:19:34.148Z,96054.56
2023-08-16T01:20:37.023Z,96062.47
2023-08-16T01:21:47.457Z,96054.50
2023-08-16T01:22:59.963Z,96055.31
2023-08-16T01:24:36.030Z,96055.63
2023-08-16T01:25:51.014Z,96051.28
2023-08-16T01:26:54.241Z,96053.31
2023-08-16T01:27:56.625Z,96044.59
2023-08-16T01:28:58.626Z,96051.72
2023-08-16T01:30:00.392Z,96056.44
2023-08-16T01:31:05.036Z,96053.22
2023-08-16T01:32:07.334Z,96058.69
2023-08-16T01:33:09.446Z,96050.47
2023-08-16T01:34:11.197Z,96059.97
2023-08-16T01:35:17.909Z,96055.59
2023-08-16T01:36:20.642Z,96058.78
2023-08-16T01:37:22.311Z,96057.97
2023-08-16T01:38:24.389Z,96054.78
2023-08-16T01:39:25.942Z,96056.03
2023-08-16T01:40:30.279Z,96054.84
2023-08-16T01:41:40.232Z,96057.22
2023-08-16T01:42:45.052Z,96057.16
2023-08-16T01:43:48.038Z,96051.63
2023-08-16T01:44:50.569Z,96053.56
2023-08-16T01:45:54.028Z,96057.94
2023-08-16T01:46:55.996Z,96055.88
2023-08-16T01:47:58.627Z,96053.41
2023-08-16T01:49:01.682Z,96064.25
2023-08-16T01:50:05.365Z,96053.16
2023-08-16T01:51:07.504Z,96054.72
2023-08-16T01:52:09.382Z,96053.97
2023-08-16T01:53:10.953Z,96054.38
2023-08-16T01:54:13.384Z,96050.78
2023-08-16T01:55:15.838Z,96053.13
2023-08-16T01:56:17.425Z,96049.94
2023-08-16T01:57:19.113Z,96046.69
2023-08-16T01:58:21.156Z,96062.97
2023-08-16T01:59:22.742Z,96052.31
2023-08-16T02:00:25.998Z,96060.97
2023-08-16T02:01:28.023Z,96060.94
2023-08-16T02:02:29.895Z,96065.63
2023-08-16T02:03:33.399Z,96063.25
2023-08-16T02:04:35.039Z,96063.28
2023-08-16T02:05:36.683Z,96064.47
2023-08-16T02:06:38.239Z,96064.44
2023-08-16T02:07:39.857Z,96063.19
2023-08-16T02:08:41.434Z,96061.66
2023-08-16T02:09:42.998Z,96061.66
2023-08-16T02:10:44.544Z,96067.22
2023-08-16T02:11:46.116Z,96069.63
2023-08-16T02:12:47.668Z,96066.47
2023-08-16T02:13:49.450Z,96064.84
2023-08-16T02:14:51.350Z,96066.00
2023-08-16T02:16:04.292Z,96072.69
2023-08-16T02:17:06.055Z,96066.28
2023-08-16T02:18:12.150Z,96069.47
2023-08-16T02:19:14.086Z,96068.69
2023-08-16T02:20:15.688Z,96064.31
2023-08-16T02:21:17.240Z,96068.31
2023-08-16T02:22:18.853Z,96063.06
2023-08-16T02:23:21.678Z,96066.72
2023-08-16T02:24:23.332Z,96068.25
2023-08-16T02:25:24.956Z,96067.50
2023-08-16T02:26:26.956Z,96070.13
2023-08-16T02:27:28.543Z,96067.22
2023-08-16T02:28:30.431Z,96061.72
2023-08-16T02:29:34.114Z,96064.13
2023-08-16T02:30:35.749Z,96069.72
2023-08-16T02:31:37.407Z,96069.78
2023-08-16T02:32:39.061Z,96068.91
2023-08-16T02:33:43.712Z,96074.09
2023-08-16T02:34:45.315Z,96072.97
2023-08-16T02:35:46.871Z,96079.75
2023-08-16T02:36:48.465Z,96082.91
2023-08-16T02:37:51.221Z,96080.50
2023-08-16T02:38:53.423Z,96079.22
2023-08-16T02:39:54.983Z,96079.63
2023-08-16T02:40:56.633Z,96073.38
2023-08-16T02:41:58.766Z,96075.69
2023-08-16T02:43:00.340Z,96079.97
2023-08-16T02:44:01.919Z,96077.88
2023-08-16T02:45:03.646Z,96070.41
2023-08-16T02:46:05.200Z,96073.44
2023-08-16T02:47:07.140Z,96067.53
2023-08-16T02:48:08.731Z,96076.19
2023-08-16T02:49:10.340Z,96062.34
2023-08-16T02:50:12.206Z,96072.34
2023-08-16T02:51:13.833Z,96066.81
2023-08-16T02:52:15.460Z,96072.13
2023-08-16T02:53:17.688Z,96069.47
2023-08-16T02:54:19.545Z,96067.53
2023-08-16T02:55:21.097Z,96077.84
2023-08-16T02:56:22.828Z,96075.81
2023-08-16T02:57:24.651Z,96078.16
2023-08-16T02:58:26.581Z,96072.88
2023-08-16T02:59:28.141Z,96080.75
2023-08-16T03:00:31.052Z,96074.81
2023-08-16T03:01:32.655Z,96074.81
2023-08-16T03:02:35.610Z,96072.88
2023-08-16T03:03:37.326Z,96071.28
2023-08-16T03:04:40.311Z,96081.72
2023-08-16T03:05:41.992Z,96071.38
2023-08-16T03:06:44.049Z,96077.34
2023-08-16T03:07:45.686Z,96078.44
2023-08-16T03:08:47.302Z,96075.34
2023-08-16T03:09:48.889Z,96071.00
2023-08-16T03:10:50.715Z,96070.22
2023-08-16T03:11:52.286Z,96067.69
2023-08-16T03:12:53.872Z,96069.66
2023-08-16T03:13:55.713Z,96078.38
2023-08-16T03:14:57.264Z,96077.19
2023-08-16T03:16:00.357Z,96073.25
2023-08-16T03:17:02.657Z,96080.34
2023-08-16T03:18:04.949Z,96076.00
2023-08-16T03:19:06.665Z,96081.50
2023-08-16T03:20:10.698Z,96075.53
2023-08-16T03:21:12.968Z,96083.84
2023-08-16T03:22:14.636Z,96075.91
2023-08-16T03:23:18.052Z,96074.31
2023-08-16T03:24:19.682Z,96077.06
2023-08-16T03:25:21.331Z,96080.16
2023-08-16T03:26:23.400Z,96083.75
2023-08-16T03:27:25.297Z,96084.09
2023-08-16T03:28:27.103Z,96086.50
2023-08-16T03:29:28.696Z,96094.38
2023-08-16T03:30:30.302Z,96086.94
2023-08-16T03:31:32.062Z,96091.75
2023-08-16T03:32:33.725Z,96086.88
2023-08-16T03:33:36.723Z,96083.75
2023-08-16T03:34:39.889Z,96083.28
2023-08-16T03:35:41.526Z,96081.69
2023-08-16T03:36:43.271Z,96083.75
2023-08-16T03:37:44.973Z,96079.28
2023-08-16T03:38:46.595Z,96078.06
2023-08-16T03:39:48.219Z,96091.19
2023-08-16T03:40:49.884Z,96086.78
2023-08-16T03:41:51.623Z,96092.66
2023-08-16T03:42:53.188Z,96085.22
2023-08-16T03:43:54.805Z,96092.78
2023-08-16T03:44:56.470Z,96087.47
2023-08-16T03:45:58.158Z,96091.47
2023-08-16T03:46:59.759Z,96089.00
2023-08-16T03:48:03.485Z,96097.78
2023-08-16T03:49:05.130Z,96090.53
2023-08-16T03:50:07.277Z,96094.19
2023-08-16T03:51:09.474Z,96090.03
2023-08-16T03:52:11.209Z,96093.97
2023-08-16T03:53:12.852Z,96089.34
2023-08-16T03:54:14.450Z,96096.50
2023-08-16T03:55:16.115Z,96099.34
2023-08-16T03:56:17.977Z,96097.00
2023-08-16T03:57:19.862Z,96099.63
2023-08-16T03:58:21.455Z,96096.50
2023-08-16T03:59:23.797Z,96103.72
2023-08-16T04:00:25.556Z,96102.28
2023-08-16T04:01:27.246Z,96106.91
2023-08-16T04:02:28.967Z,96102.50
2023-08-16T04:03:30.688Z,96108.28
2023-08-16T04:04:32.424Z,96108.75
2023-08-16T04:05:34.173Z,96103.25
2023-08-16T04:06:35.727Z,96112.78
2023-08-16T04:07:37.391Z,96112.47
2023-08-16T04:08:40.130Z,96110.50
2023-08-16T04:09:41.774Z,96104.44
2023-08-16T04:10:43.372Z,96107.28
2023-08-16T04:11:44.910Z,96113.72
2023-08-16T04:12:46.472Z,96114.16
2023-08-16T04:13:48.053Z,96117.22
2023-08-16T04:14:51.065Z,96116.72
2023-08-16T04:15:52.784Z,96123.53
2023-08-16T04:16:54.989Z,96123.53
2023-08-16T04:17:56.908Z,96118.75
2023-08-16T04:18:58.516Z,96124.28
2023-08-16T04:20:00.343Z,96125.66
2023-08-16T04:21:01.981Z,96130.78
2023-08-16T04:22:03.670Z,96134.28
2023-08-16T04:23:05.228Z,96127.13
2023-08-16T04:24:07.261Z,96133.16
2023-08-16T04:25:09.630Z,96133.16
2023-08-16T04:26:11.335Z,96132.00
2023-08-16T04:27:13.316Z,96127.50
2023-08-16T04:28:14.970Z,96124.38
2023-08-16T04:29:16.687Z,96131.59
2023-08-16T04:30:18.677Z,96135.72
2023-08-16T04:31:20.299Z,96132.97
2023-08-16T04:32:21.996Z,96135.16
2023-08-16T04:33:23.683Z,96132.38
2023-08-16T04:34:25.310Z,96128.16
2023-08-16T04:35:26.958Z,96136.06
2023-08-16T04:36:28.598Z,96138.53
2023-08-16T04:37:30.396Z,96141.19
2023-08-16T04:38:32.091Z,96144.34
2023-08-16T04:39:33.873Z,96143.47
2023-08-16T04:40:35.777Z,96144.50
2023-08-16T04:41:38.050Z,96142.81
2023-08-16T04:42:39.674Z,96148.19
2023-08-16T04:43:41.816Z,96134.00
2023-08-16T04:44:43.916Z,96139.22
2023-08-16T04:45:46.270Z,96135.81
2023-08-16T04:46:50.757Z,96141.38
2023-08-16T04:47:52.365Z,96133.13
2023-08-16T04:48:54.737Z,96134.22
2023-08-16T04:49:56.592Z,96131.03
2023-08-16T04:50:58.244Z,96132.63
2023-08-16T04:51:59.910Z,96135.09
2023-08-16T04:53:02.297Z,96150.94
2023-08-16T04:54:04.294Z,96141.13
2023-08-16T04:55:07.288Z,96140.03
2023-08-16T04:56:09.368Z,96142.44
2023-08-16T04:57:10.986Z,96146.53
2023-08-16T04:58:14.484Z,96139.28
2023-08-16T04:59:22.083Z,96141.28
2023-08-16T05:00:24.280Z,96142.81
2023-08-16T05:01:32.091Z,96146.38
2023-08-16T05:02:34.703Z,96142.56
2023-08-16T05:03:36.348Z,96143.03
2023-08-16T05:04:37.897Z,96145.00
2023-08-16T05:05:39.511Z,96140.47
2023-08-16T05:06:41.208Z,96131.41
2023-08-16T05:07:42.877Z,96138.34
2023-08-16T05:08:44.812Z,96138.34
2023-08-16T05:09:46.440Z,96135.28
2023-08-16T05:10:48.035Z,96144.97
2023-08-16T05:11:49.729Z,96136.81
2023-08-16T05:12:51.848Z,96146.09
2023-08-16T05:13:53.632Z,96148.25
2023-08-16T05:14:55.257Z,96150.72
2023-08-16T05:15:57.940Z,96149.53
2023-08-16T05:16:59.529Z,96145.53
2023-08-16T05:18:01.215Z,96149.09
2023-08-16T05:19:03.392Z,96148.56
2023-08-16T05:20:07.823Z,96152.44
2023-08-16T05:21:09.455Z,96154.34
2023-08-16T05:22:11.021Z,96145.97
2023-08-16T05:23:12.607Z,96162.78
2023-08-16T05:24:14.193Z,96161.66
2023-08-16T05:25:15.837Z,96151.63
2023-08-16T05:26:17.459Z,96156.91
2023-08-16T05:27:19.106Z,96147.84
2023-08-16T05:28:20.954Z,96165.34
2023-08-16T05:29:22.589Z,96165.38
2023-08-16T05:30:24.142Z,96157.81
2023-08-16T05:31:25.724Z,96161.75
2023-08-16T05:32:27.405Z,96161.31
2023-08-16T05:33:29.236Z,96162.53
2023-08-16T05:34:31.001Z,96162.25
2023-08-16T05:35:35.690Z,96155.50
2023-08-16T05:36:46.987Z,96167.03
2023-08-16T05:37:49.393Z,96168.22
2023-08-16T05:38:50.933Z,96165.03
2023-08-16T05:39:52.807Z,96173.03
2023-08-16T05:40:54.504Z,96181.78
2023-08-16T05:41:56.125Z,96177.78
2023-08-16T05:42:57.721Z,96170.66
2023-08-16T05:43:59.253Z,96174.22
2023-08-16T05:45:00.875Z,96177.00
2023-08-16T05:46:03.566Z,96179.75
2023-08-16T05:47:05.398Z,96180.16
2023-08-16T05:48:07.260Z,96179.31
2023-08-16T05:49:09.481Z,96177.19
2023-08-16T05:50:11.168Z,96175.34
2023-08-16T05:51:12.770Z,96176.09
2023-08-16T05:52:14.331Z,96171.94
2023-08-16T05:53:15.921Z,96177.69
2023-08-16T05:54:17.522Z,96180.63
2023-08-16T05:55:19.106Z,96179.34
2023-08-16T05:56:20.717Z,96177.97
2023-08-16T05:57:22.757Z,96181.25
2023-08-16T05:58:24.422Z,96178.69
2023-08-16T05:59:26.124Z,96177.72
2023-08-16T06:00:27.691Z,96173.03
2023-08-16T06:01:29.357Z,96180.94
2023-08-16T06:02:31.059Z,96179.53
2023-08-16T06:03:32.841Z,96175.50
2023-08-16T06:04:35.156Z,96174.44
2023-08-16T06:05:36.646Z,96170.91
2023-08-16T06:06:38.749Z,96171.44
2023-08-16T06:07:40.440Z,96173.72
2023-08-16T06:08:42.015Z,96179.63
2023-08-16T06:09:43.593Z,96174.16
2023-08-16T06:10:45.166Z,96173.63
2023-08-16T06:11:46.722Z,96168.78
2023-08-16T06:12:48.294Z,96168.84
2023-08-16T06:13:49.980Z,96170.38
2023-08-16T06:14:51.535Z,96166.19
2023-08-16T06:15:53.140Z,96175.53
2023-08-16T06:16:54.768Z,96171.38
2023-08-16T06:17:56.359Z,96172.66
2023-08-16T06:18:57.974Z,96170.41
2023-08-16T06:19:59.525Z,96180.28
2023-08-16T06:21:01.106Z,96169.50
2023-08-16T06:22:03.296Z,96178.13
2023-08-16T06:23:05.008Z,96171.97
2023-08-16T06:24:07.302Z,96178.72
2023-08-16T06:25:09.429Z,96185.06
2023-08-16T06:26:10.924Z,96180.94
2023-08-16T06:27:12.546Z,96182.56
2023-08-16T06:28:14.134Z,96183.13
2023-08-16T06:29:15.700Z,96173.16
2023-08-16T06:30:17.339Z,96178.66
2023-08-16T06:31:19.840Z,96179.38
2023-08-16T06:32:21.539Z,96181.97
2023-08-16T06:33:23.554Z,96177.13
2023-08-16T06:34:25.535Z,96182.63
2023-08-16T06:35:27.090Z,96177.19
2023-08-16T06:36:29.189Z,96172.69
2023-08-16T06:37:32.238Z,96176.72
2023-08-16T06:38:33.877Z,96179.03
2023-08-16T06:39:35.474Z,96179.66
2023-08-16T06:40:37.275Z,96186.16
2023-08-16T06:41:38.896Z,96175.25
2023-08-16T06:42:43.350Z,96187.41
2023-08-16T06:43:44.970Z,96184.31
2023-08-16T06:44:46.821Z,96175.63
2023-08-16T06:45:48.374Z,96175.47
2023-08-16T06:46:50.020Z,96184.38
2023-08-16T06:47:51.818Z,96176.38
2023-08-16T06:48:54.123Z,96181.63
2023-08-16T06:49:55.738Z,96182.34
2023-08-16T06:50:57.488Z,96179.31
2023-08-16T06:51:59.395Z,96172.50
2023-08-16T06:53:01.061Z,96175.47
2023-08-16T06:54:02.797Z,96176.88
2023-08-16T06:55:04.714Z,96173.72
2023-08-16T06:56:06.448Z,96174.53
2023-08-16T06:57:08.109Z,96173.91
2023-08-16T06:58:09.733Z,96176.25
2023-08-16T06:59:11.821Z,96174.47
2023-08-16T07:00:14.110Z,96163.84
2023-08-16T07:01:15.635Z,96166.47
2023-08-16T07:02:18.773Z,96166.63
2023-08-16T07:03:20.797Z,96167.88
2023-08-16T07:04:22.501Z,96176.50
2023-08-16T07:05:26.593Z,96167.88
2023-08-16T07:06:28.279Z,96168.06
2023-08-16T07:07:31.639Z,96168.03
2023-08-16T07:08:33.270Z,96173.22
2023-08-16T07:09:34.863Z,96165.69
2023-08-16T07:10:36.498Z,96172.34
2023-08-16T07:11:39.422Z,96158.56
2023-08-16T07:12:42.845Z,96167.06
2023-08-16T07:13:44.887Z,96170.53
2023-08-16T07:14:46.599Z,96167.94
2023-08-16T07:15:48.203Z,96173.44
2023-08-16T07:16:50.268Z,96169.50
2023-08-16T07:17:51.856Z,96181.75
2023-08-16T07:18:53.635Z,96172.75
2023-08-16T07:19:55.376Z,96167.00
2023-08-16T07:20:56.978Z,96177.81
2023-08-16T07:21:59.753Z,96171.22
2023-08-16T07:23:03.291Z,96178.03
2023-08-16T07:24:06.922Z,96172.09
2023-08-16T07:25:11.715Z,96179.47
2023-08-16T07:26:14.938Z,96183.34
2023-08-16T07:27:18.012Z,96183.69
2023-08-16T07:28:21.173Z,96185.88
2023-08-16T07:29:24.298Z,96193.56
2023-08-16T07:30:27.650Z,96188.19
2023-08-16T07:31:30.977Z,96184.03
2023-08-16T07:32:33.059Z,96191.28
2023-08-16T07:33:36.244Z,96189.78
2023-08-16T07:34:37.902Z,96190.91
2023-08-16T07:35:39.484Z,96195.09
2023-08-16T07:36:41.159Z,96182.44
2023-08-16T07:37:42.838Z,96193.50
2023-08-16T07:38:45.108Z,96201.69
2023-08-16T07:39:46.688Z,96195.13
2023-08-16T07:40:48.912Z,96185.00
2023-08-16T07:41:50.565Z,96195.44
2023-08-16T07:42:52.145Z,96188.84
2023-08-16T07:43:53.909Z,96183.53
2023-08-16T07:44:55.478Z,96177.53
2023-08-16T07:45:57.210Z,96180.88
2023-08-16T07:46:58.831Z,96176.16
2023-08-16T07:48:00.450Z,96176.19
2023-08-16T07:49:02.036Z,96175.88
2023-08-16T07:50:03.792Z,96164.16
2023-08-16T07:51:05.690Z,96165.16
2023-08-16T07:52:07.421Z,96160.47
2023-08-16T07:53:10.082Z,96158.88
2023-08-16T07:54:13.292Z,96160.75
2023-08-16T07:55:16.338Z,96163.38
2023-08-16T07:56:19.271Z,96163.25
2023-08-16T07:57:22.161Z,96162.06
2023-08-16T07:58:25.038Z,96159.88
2023-08-16T07:59:28.335Z,96168.97
2023-08-16T08:00:31.465Z,96173.97
2023-08-16T08:01:34.403Z,96175.22
2023-08-16T08:02:54.282Z,96180.09
2023-08-16T08:03:59.531Z,96180.56
2023-08-16T08:05:02.847Z,96176.47
2023-08-16T08:06:05.078Z,96170.16
2023-08-16T08:07:06.547Z,96183.03
2023-08-16T08:08:09.145Z,96170.91
2023-08-16T08:09:10.949Z,96160.13
2023-08-16T08:10:12.587Z,96170.91
2023-08-16T08:11:15.502Z,96168.44
2023-08-16T08:12:17.539Z,96168.22
2023-08-16T08:13:19.116Z,96172.38
2023-08-16T08:14:20.664Z,96163.44
2023-08-16T08:15:22.252Z,96166.53
2023-08-16T08:16:24.535Z,96172.53
2023-08-16T08:17:26.467Z,96178.00
2023-08-16T08:18:28.063Z,96171.03
2023-08-16T08:19:29.637Z,96180.59
2023-08-16T08:20:31.218Z,96184.09
2023-08-16T08:21:32.751Z,96187.56
2023-08-16T08:22:34.351Z,96183.00
2023-08-16T08:23:36.035Z,96180.78
2023-08-16T08:24:37.657Z,96176.38
2023-08-16T08:25:43.733Z,96177.00
2023-08-16T08:26:46.052Z,96176.84
2023-08-16T08:27:47.697Z,96175.41
2023-08-16T08:28:49.264Z,96181.09
2023-08-16T08:29:50.919Z,96179.06
2023-08-16T08:30:54.039Z,96182.94
2023-08-16T08:31:55.634Z,96186.25
2023-08-16T08:32:59.582Z,96187.63
2023-08-16T08:34:01.334Z,96187.84
2023-08-16T08:35:06.152Z,96179.66
2023-08-16T08:36:07.928Z,96178.41
2023-08-16T08:37:09.742Z,96191.09
2023-08-16T08:38:11.489Z,96189.03
2023-08-16T08:39:13.188Z,96180.94
2023-08-16T08:40:14.850Z,96179.41
2023-08-16T08:41:20.639Z,96184.81
2023-08-16T08:42:23.878Z,96177.34
2023-08-16T08:43:29.273Z,96185.84
2023-08-16T08:44:31.316Z,96181.31
2023-08-16T08:45:32.846Z,96181.88
2023-08-16T08:46:35.170Z,96182.22
2023-08-16T08:47:36.898Z,96190.91
2023-08-16T08:48:38.649Z,96184.31
2023-08-16T08:49:40.787Z,96190.56
2023-08-16T08:50:43.984Z,96192.16
2023-08-16T08:51:45.637Z,96193.78
2023-08-16T08:52:52.669Z,96190.38
2023-08-16T08:53:54.304Z,96192.03
2023-08-16T08:54:55.930Z,96187.59
2023-08-16T08:56:04.034Z,96183.72
2023-08-16T08:57:05.641Z,96178.81
2023-08-16T08:58:07.277Z,96184.69
2023-08-16T08:59:15.014Z,96188.16
2023-08-16T09:00:21.052Z,96180.88
2023-08-16T09:01:24.524Z,96179.16
2023-08-16T09:02:29.140Z,96183.28
2023-08-16T09:03:32.370Z,96177.63
2023-08-16T09:04:34.396Z,96187.06
2023-08-16T09:05:38.768Z,96186.88
2023-08-16T09:06:40.533Z,96182.38
2023-08-16T09:07:42.897Z,96191.91
2023-08-16T09:08:46.851Z,96188.56
2023-08-16T09:09:50.325Z,96179.47
2023-08-16T09:10:51.996Z,96181.81
2023-08-16T09:11:53.617Z,96189.72
2023-08-16T09:12:55.519Z,96186.75
2023-08-16T09:13:57.328Z,96181.66
2023-08-16T09:14:59.210Z,96186.03
2023-08-16T09:16:02.356Z,96191.03
2023-08-16T09:17:04.015Z,96185.47
2023-08-16T09:18:16.174Z,96182.81
2023-08-16T09:19:17.706Z,96192.38
2023-08-16T09:20:19.781Z,96187.75
2023-08-16T09:21:25.767Z,96192.94
2023-08-16T09:22:29.206Z,96193.00
2023-08-16T09:23:33.547Z,96185.56
2023-08-16T09:24:35.117Z,96178.41
2023-08-16T09:25:36.690Z,96183.88
2023-08-16T09:26:38.689Z,96179.22
2023-08-16T09:27:44.621Z,96181.41
2023-08-16T09:28:47.360Z,96182.81
2023-08-16T09:29:51.070Z,96179.34
2023-08-16T09:30:53.951Z,96180.09
2023-08-16T09:31:56.899Z,96175.16
2023-08-16T09:32:59.768Z,96176.78
2023-08-16T09:34:03.013Z,96176.72
2023-08-16T09:35:06.816Z,96177.31
2023-08-16T09:36:09.722Z,96183.38
2023-08-16T09:37:14.262Z,96169.41
2023-08-16T09:38:37.346Z,96169.53
2023-08-16T09:39:39.406Z,96168.78
2023-08-16T09:40:51.096Z,96164.97
2023-08-16T09:41:52.723Z,96165.63
2023-08-16T09:43:03.654Z,96161.41
2023-08-16T09:44:09.086Z,96167.63
2023-08-16T09:45:10.814Z,96163.63
2023-08-16T09:46:12.919Z,96157.88
2023-08-16T09:47:15.865Z,96161.84
2023-08-16T09:48:24.877Z,96158.34
2023-08-16T09:49:26.783Z,96152.06
2023-08-16T09:50:51.833Z,96154.41
2023-08-16T09:52:59.517Z,96155.13
2023-08-16T09:54:03.218Z,96152.94
2023-08-16T09:55:08.707Z,96148.00
2023-08-16T09:58:21.293Z,96148.69
2023-08-16T10:00:29.031Z,96146.41
2023-08-16T10:01:31.839Z,96144.84
2023-08-16T10:03:38.888Z,96142.53
2023-08-16T10:05:47.572Z,96148.78
2023-08-16T10:07:57.639Z,96147.88
2023-08-16T10:08:59.513Z,96139.75
2023-08-16T10:10:01.235Z,96147.44
2023-08-16T10:11:03.184Z,96148.31
2023-08-16T10:12:05.040Z,96146.31
2023-08-16T10:13:08.526Z,96143.47
2023-08-16T10:14:10.216Z,96150.47
2023-08-16T10:15:11.850Z,96146.22
2023-08-16T10:16:15.625Z,96137.72
2023-08-16T10:17:18.382Z,96141.19
2023-08-16T10:18:22.766Z,96135.91
2023-08-16T10:19:24.839Z,96133.28
2023-08-16T10:20:30.246Z,96132.53
2023-08-16T10:21:35.548Z,96137.00
2023-08-16T10:22:42.845Z,96135.00
2023-08-16T10:23:45.615Z,96132.31
2023-08-16T10:24:51.112Z,96130.53
2023-08-16T10:25:53.457Z,96135.59
2023-08-16T10:26:55.866Z,96130.00
2023-08-16T10:27:59.464Z,96138.34
2023-08-16T10:29:21.221Z,96130.34
2023-08-16T10:30:24.830Z,96128.78
2023-08-16T10:31:31.117Z,96133.81
2023-08-16T10:32:33.637Z,96128.16
2023-08-16T10:33:45.146Z,96122.63
2023-08-16T10:34:47.101Z,96114.44
2023-08-16T10:35:51.581Z,96118.25
2023-08-16T10:36:53.240Z,96117.38
2023-08-16T10:37:55.022Z,96129.56
2023-08-16T10:39:00.185Z,96124.78
2023-08-16T10:41:14.654Z,96128.44
2023-08-16T10:42:17.009Z,96111.03
2023-08-16T10:44:26.757Z,96115.66
2023-08-16T10:46:38.247Z,96111.03
2023-08-16T10:47:41.647Z,96117.50
2023-08-16T10:48:43.262Z,96114.34
2023-08-16T10:49:44.843Z,96109.78
2023-08-16T10:50:59.500Z,96110.19
2023-08-16T10:52:02.196Z,96108.09
2023-08-16T10:53:05.771Z,96108.41
2023-08-16T10:54:07.458Z,96103.09
2023-08-16T10:55:09.653Z,96105.00
2023-08-16T10:56:11.284Z,96102.41
2023-08-16T10:57:13.942Z,96110.66
2023-08-16T10:58:23.810Z,96102.09
2023-08-16T10:59:25.434Z,96107.13
2023-08-16T11:00:35.059Z,96102.06
2023-08-16T11:01:36.846Z,96104.13
2023-08-16T11:02:41.130Z,96109.41
2023-08-16T11:03:45.028Z,96098.91
2023-08-16T11:04:47.454Z,96107.28
2023-08-16T11:05:50.210Z,96104.84
2023-08-16T11:07:02.333Z,96103.09
2023-08-16T11:08:10.437Z,96095.69
2023-08-16T11:09:12.168Z,96091.28
2023-08-16T11:10:14.571Z,96095.94
2023-08-16T11:11:16.265Z,96099.06
2023-08-16T11:12:19.623Z,96103.22
2023-08-16T11:13:22.712Z,96100.59
2023-08-16T11:14:24.311Z,96099.25
2023-08-16T11:15:27.985Z,96107.19
2023-08-16T11:16:29.991Z,96108.78
2023-08-16T11:17:31.726Z,96100.41
2023-08-16T11:18:35.298Z,96101.78
2023-08-16T11:19:37.361Z,96099.22
2023-08-16T11:20:39.342Z,96103.75
2023-08-16T11:21:45.673Z,96092.25
2023-08-16T11:22:48.094Z,96108.41
2023-08-16T11:23:54.512Z,96104.84
2023-08-16T11:24:56.450Z,96099.78
2023-08-16T11:26:02.248Z,96095.72
2023-08-16T11:27:06.353Z,96087.84
2023-08-16T11:28:08.339Z,96100.44
2023-08-16T11:29:09.932Z,96097.84
2023-08-16T11:30:12.950Z,96093.47
2023-08-16T11:31:14.565Z,96094.31
2023-08-16T11:32:16.401Z,96090.00
2023-08-16T11:33:18.141Z,96094.56
2023-08-16T11:34:19.794Z,96087.25
2023-08-16T11:35:21.541Z,96086.13
2023-08-16T11:36:23.277Z,96083.28
2023-08-16T11:37:25.281Z,96084.72
2023-08-16T11:38:28.363Z,96090.53
2023-08-16T11:39:29.982Z,96083.56
2023-08-16T11:40:31.608Z,96079.94
2023-08-16T11:41:33.294Z,96092.72
2023-08-16T11:42:34.881Z,96077.09
2023-08-16T11:43:37.236Z,96075.66
2023-08-16T11:44:41.778Z,96083.53
2023-08-16T11:45:43.529Z,96084.75
2023-08-16T11:46:48.600Z,96090.94
2023-08-16T11:47:51.749Z,96082.25
2023-08-16T11:48:54.417Z,96083.84
2023-08-16T11:49:56.100Z,96082.03
2023-08-16T11:50:58.462Z,96073.91
2023-08-16T11:52:00.274Z,96080.44
2023-08-16T11:53:03.812Z,96073.28
2023-08-16T11:54:06.431Z,96070.38
2023-08-16T11:55:10.151Z,96074.38
2023-08-16T11:56:12.976Z,96076.16
2023-08-16T11:57:19.263Z,96081.13
2023-08-16T11:58:20.875Z,96081.56
2023-08-16T11:59:26.451Z,96075.00
2023-08-16T12:00:30.604Z,96075.13
2023-08-16T12:01:32.533Z,96079.88
2023-08-16T12:02:34.245Z,96074.78
2023-08-16T12:03:36.727Z,96071.69
2023-08-16T12:04:43.449Z,96074.00
2023-08-16T12:05:49.178Z,96081.19
2023-08-16T12:06:50.975Z,96079.09
2023-08-16T12:07:52.878Z,96074.13
2023-08-16T12:08:55.135Z,96074.97
2023-08-16T12:09:56.832Z,96075.81
2023-08-16T12:11:00.044Z,96075.41
2023-08-16T12:12:07.768Z,96074.78
2023-08-16T12:13:14.115Z,96075.69
2023-08-16T12:14:15.960Z,96078.06
2023-08-16T12:15:17.543Z,96080.03
2023-08-16T12:16:19.229Z,96076.72
2023-08-16T12:17:20.924Z,96077.38
2023-08-16T12:18:23.880Z,96076.34
2023-08-16T12:19:25.544Z,96070.03
2023-08-16T12:20:27.984Z,96073.50
2023-08-16T12:21:29.651Z,96074.81
2023-08-16T12:22:31.269Z,96074.56
2023-08-16T12:23:32.850Z,96063.44
2023-08-16T12:24:35.072Z,96059.03
2023-08-16T12:25:36.658Z,96065.22
2023-08-16T12:26:38.328Z,96070.13
2023-08-16T12:27:40.654Z,96063.75